createdAt,value
2018-12-27T00:01:13.703Z,17.00
2018-12-27T00:03:45.642Z,15.30
2018-12-27T00:06:15.860Z,17.85
2018-12-27T00:08:46.530Z,16.62
2018-12-27T00:11:17.168Z,17.90
2018-12-27T00:14:08.154Z,17.70
2018-12-27T00:16:38.484Z,19.00
2018-12-27T00:19:08.778Z,18.75
2018-12-27T00:21:51.254Z,19.20
2018-12-27T00:24:16.571Z,19.10
2018-12-27T00:26:46.916Z,22.37
2018-12-27T00:29:17.182Z,21.15
2018-12-27T00:31:48.185Z,24.02
2018-12-27T00:34:40.703Z,22.98
2018-12-27T00:37:11.197Z,25.12
2018-12-27T00:39:41.702Z,26.90
2018-12-27T00:42:12.461Z,24.07
2018-12-27T00:44:44.621Z,28.05
2018-12-27T00:47:15.463Z,28.62
2018-12-27T00:49:46.268Z,27.25
2018-12-27T00:52:28.823Z,27.02
2018-12-27T00:55:00.252Z,29.55
2018-12-27T00:57:31.096Z,32.50
2018-12-27T01:00:01.584Z,31.40
2018-12-27T01:02:32.197Z,32.80
2018-12-27T01:05:02.566Z,32.20
2018-12-27T01:07:33.070Z,32.40
2018-12-27T01:10:03.739Z,33.85
2018-12-27T01:12:34.483Z,35.65
2018-12-27T01:15:04.958Z,37.25
2018-12-27T01:17:35.373Z,37.03
2018-12-27T01:20:05.863Z,36.13
2018-12-27T01:22:36.446Z,38.08
2018-12-27T01:25:06.938Z,38.92
2018-12-27T01:27:38.096Z,39.98
2018-12-27T01:30:09.011Z,35.13
2018-12-27T01:32:39.461Z,39.35
2018-12-27T01:35:09.886Z,37.63
2018-12-27T01:37:40.477Z,37.75
2018-12-27T01:40:11.310Z,36.53
2018-12-27T01:42:41.785Z,40.30
2018-12-27T01:45:12.190Z,39.18
2018-12-27T01:47:42.598Z,40.28
2018-12-27T01:50:12.961Z,40.40
2018-12-27T01:52:44.107Z,43.68
2018-12-27T01:55:14.959Z,41.63
2018-12-27T01:57:47.049Z,42.33
2018-12-27T02:00:17.685Z,37.70
2018-12-27T02:02:48.183Z,40.50
2018-12-27T02:05:18.669Z,39.33
2018-12-27T02:07:49.139Z,40.78
2018-12-27T02:10:19.665Z,42.10
2018-12-27T02:12:50.140Z,41.40
2018-12-27T02:15:20.617Z,39.05
2018-12-27T02:17:51.060Z,40.30
2018-12-27T02:20:21.707Z,40.03
2018-12-27T02:22:52.261Z,38.33
2018-12-27T02:25:41.733Z,39.83
2018-12-27T02:28:12.537Z,42.38
2018-12-27T02:30:43.016Z,40.43
2018-12-27T02:33:13.672Z,42.55
2018-12-27T02:35:44.232Z,43.68
2018-12-27T02:38:14.639Z,40.17
2018-12-27T02:40:56.369Z,41.92
2018-12-27T02:43:38.443Z,39.85
2018-12-27T02:46:08.822Z,39.08
2018-12-27T02:48:39.710Z,40.55
2018-12-27T02:51:21.870Z,36.13
2018-12-27T02:53:52.640Z,40.85
2018-12-27T02:56:23.100Z,38.38
2018-12-27T02:58:53.506Z,36.53
2018-12-27T03:01:24.064Z,39.88
2018-12-27T03:03:54.553Z,37.45
2018-12-27T03:06:24.969Z,36.33
2018-12-27T03:08:55.875Z,37.20
2018-12-27T03:11:26.608Z,36.88
2018-12-27T03:13:57.682Z,37.38
2018-12-27T03:19:09.864Z,37.28
2018-12-27T03:21:40.381Z,33.45
2018-12-27T03:24:22.842Z,36.45
2018-12-27T03:27:05.252Z,38.20
2018-12-27T03:29:35.757Z,38.67
2018-12-27T03:32:06.207Z,41.15
2018-12-27T03:34:37.006Z,39.58
2018-12-27T03:37:07.485Z,39.63
2018-12-27T03:39:38.225Z,36.48
2018-12-27T03:42:08.875Z,33.85
2018-12-27T03:44:39.343Z,33.75
2018-12-27T03:47:09.828Z,35.90
2018-12-27T03:49:40.417Z,35.05
2018-12-27T03:52:10.960Z,32.23
2018-12-27T03:54:41.790Z,30.20
2018-12-27T03:57:12.235Z,34.13
2018-12-27T03:59:42.765Z,31.93
2018-12-27T04:02:13.579Z,29.95
2018-12-27T04:04:44.052Z,34.10
2018-12-27T04:07:14.555Z,34.30
2018-12-27T04:09:45.062Z,33.15
2018-12-27T04:12:15.534Z,32.42
2018-12-27T04:14:46.135Z,32.73
2018-12-27T04:17:16.447Z,33.83
2018-12-27T04:19:46.639Z,31.80
2018-12-27T04:22:16.894Z,32.08
2018-12-27T04:24:47.119Z,26.57
2018-12-27T04:27:36.432Z,29.05
2018-12-27T04:30:07.109Z,27.22
2018-12-27T04:35:59.933Z,26.02
2018-12-27T04:38:30.448Z,28.52
2018-12-27T04:41:01.060Z,29.25
2018-12-27T04:43:51.883Z,25.00
2018-12-27T04:46:22.088Z,23.98
2018-12-27T04:49:11.499Z,26.15
2018-12-27T04:51:55.466Z,24.40
2018-12-27T04:54:25.882Z,25.35
2018-12-27T04:56:56.140Z,25.02
2018-12-27T04:59:26.326Z,25.75
2018-12-27T05:01:56.637Z,23.98
2018-12-27T05:04:32.432Z,23.75
2018-12-27T05:07:14.502Z,24.90
2018-12-27T05:09:44.729Z,24.15
2018-12-27T05:12:14.946Z,22.80
2018-12-27T05:15:04.515Z,22.02
2018-12-27T05:17:34.783Z,22.40
2018-12-27T05:20:05.039Z,23.40
2018-12-27T05:22:54.438Z,23.30
2018-12-27T05:25:24.678Z,22.52
2018-12-27T05:27:55.345Z,20.17
2018-12-27T05:30:25.937Z,22.07
2018-12-27T05:32:58.179Z,20.57
2018-12-27T05:35:28.757Z,21.80
2018-12-27T05:37:59.236Z,22.30
2018-12-27T05:40:41.277Z,19.95
2018-12-27T05:43:11.545Z,18.98
2018-12-27T05:45:41.887Z,19.52
2018-12-27T05:48:12.247Z,20.35
2018-12-27T05:50:43.034Z,20.45
2018-12-27T05:53:13.281Z,21.10
2018-12-27T05:55:55.652Z,21.35
2018-12-27T05:58:26.055Z,21.30
2018-12-27T06:00:56.277Z,20.25
2018-12-27T06:03:26.700Z,21.52
2018-12-27T06:05:57.271Z,21.12
2018-12-27T06:08:27.484Z,21.62
2018-12-27T06:10:59.489Z,23.10
2018-12-27T06:13:30.082Z,21.75
2018-12-27T06:16:00.638Z,23.15
2018-12-27T06:18:30.875Z,23.40
2018-12-27T06:21:01.521Z,22.67
2018-12-27T06:23:31.820Z,24.52
2018-12-27T06:26:02.310Z,23.55
2018-12-27T06:28:34.271Z,23.42
2018-12-27T06:31:04.591Z,22.82
2018-12-27T06:33:35.195Z,24.67
2018-12-27T06:36:06.491Z,23.90
2018-12-27T06:38:37.042Z,24.25
2018-12-27T06:41:09.007Z,25.30
2018-12-27T06:43:39.237Z,24.70
2018-12-27T06:46:09.518Z,25.60
2018-12-27T06:48:39.928Z,25.88
2018-12-27T06:51:10.592Z,27.07
2018-12-27T06:53:41.089Z,23.40
2018-12-27T06:56:11.361Z,25.10
2018-12-27T06:58:41.760Z,25.70
2018-12-27T07:01:12.280Z,22.35
2018-12-27T07:03:42.501Z,23.02
2018-12-27T07:06:12.794Z,23.15
2018-12-27T07:08:42.960Z,22.37
2018-12-27T07:11:13.199Z,22.67
2018-12-27T07:13:43.453Z,23.38
2018-12-27T07:16:13.655Z,22.10
2018-12-27T07:18:43.865Z,22.00
2018-12-27T07:21:14.095Z,22.25
2018-12-27T07:23:45.966Z,19.55
2018-12-27T07:26:16.685Z,21.50
2018-12-27T07:28:46.954Z,21.12
2018-12-27T07:31:17.208Z,20.37
2018-12-27T07:33:47.535Z,21.60
2018-12-27T07:36:17.828Z,20.50
2018-12-27T07:44:11.984Z,21.52
2018-12-27T07:46:42.217Z,22.73
2018-12-27T07:52:03.418Z,20.37
2018-12-27T07:54:33.763Z,19.77
2018-12-27T07:57:03.971Z,22.50
2018-12-27T07:59:34.320Z,21.60
2018-12-27T08:02:04.520Z,23.98
2018-12-27T08:04:34.716Z,23.65
2018-12-27T08:07:24.105Z,24.85
2018-12-27T08:09:54.401Z,22.48
2018-12-27T08:12:26.239Z,24.75
2018-12-27T08:14:56.522Z,26.12
2018-12-27T08:17:26.925Z,27.05
2018-12-27T08:19:57.117Z,28.17
2018-12-27T08:22:27.454Z,26.07
2018-12-27T08:25:16.751Z,27.82
2018-12-27T08:27:47.046Z,29.23
2018-12-27T08:30:19.324Z,24.85
2018-12-27T08:33:01.218Z,29.23
2018-12-27T08:35:31.431Z,28.85
2018-12-27T08:38:02.032Z,29.35
2018-12-27T08:40:32.391Z,30.60
2018-12-27T08:43:02.609Z,28.32
2018-12-27T08:45:33.168Z,29.42
2018-12-27T08:48:03.515Z,28.25
2018-12-27T08:50:33.741Z,29.25
2018-12-27T08:53:04.104Z,27.77
2018-12-27T08:55:34.406Z,30.50
2018-12-27T09:00:45.397Z,28.90
2018-12-27T09:03:15.681Z,30.37
2018-12-27T09:05:46.059Z,31.95
2018-12-27T09:08:16.251Z,31.70
2018-12-27T09:10:46.779Z,28.85
2018-12-27T09:13:16.962Z,32.28
2018-12-27T09:15:48.858Z,34.08
2018-12-27T09:18:19.159Z,35.13
2018-12-27T09:20:49.596Z,33.25
2018-12-27T09:23:40.533Z,30.15
2018-12-27T09:26:10.736Z,31.05
2018-12-27T09:28:42.667Z,27.98
2018-12-27T09:31:12.895Z,31.87
2018-12-27T09:33:43.117Z,30.17
2018-12-27T09:36:13.329Z,29.70
2018-12-27T09:38:43.575Z,29.87
2018-12-27T09:41:13.961Z,29.00
2018-12-27T09:43:44.262Z,30.62
2018-12-27T09:46:16.186Z,31.10
2018-12-27T09:48:46.528Z,29.07
2018-12-27T09:51:16.825Z,29.32
2018-12-27T09:53:47.152Z,29.63
2018-12-27T09:56:17.478Z,35.17
2018-12-27T09:58:47.946Z,33.48
2018-12-27T10:01:18.641Z,35.98
2018-12-27T10:03:48.859Z,28.80
2018-12-27T10:06:19.135Z,26.95
2018-12-27T10:08:49.557Z,32.20
2018-12-27T10:11:20.021Z,26.87
2018-12-27T10:13:50.243Z,30.00
2018-12-27T10:16:20.694Z,30.60
2018-12-27T10:21:59.283Z,29.67
2018-12-27T10:24:31.125Z,31.80
2018-12-27T10:27:13.472Z,27.35
2018-12-27T10:29:43.797Z,25.57
2018-12-27T10:32:14.139Z,27.62
2018-12-27T10:34:44.570Z,26.12
2018-12-27T10:37:16.517Z,29.23
2018-12-27T10:39:46.863Z,26.97
2018-12-27T10:42:17.378Z,28.62
2018-12-27T10:44:47.690Z,27.07
2018-12-27T10:47:17.985Z,25.40
2018-12-27T10:49:48.391Z,29.30
2018-12-27T10:52:18.815Z,29.12
2018-12-27T10:54:49.304Z,27.95
2018-12-27T10:57:20.203Z,28.27
2018-12-27T10:59:50.855Z,28.38
2018-12-27T11:02:22.920Z,29.87
2018-12-27T11:04:53.781Z,28.80
2018-12-27T11:07:43.053Z,29.90
2018-12-27T11:10:13.349Z,28.25
2018-12-27T11:12:43.690Z,28.92
2018-12-27T11:15:33.424Z,30.00
2018-12-27T11:18:03.882Z,31.45
2018-12-27T11:20:34.109Z,31.97
2018-12-27T11:23:23.436Z,30.00
2018-12-27T11:25:54.139Z,31.97
2018-12-27T11:28:24.387Z,31.62
2018-12-27T11:30:54.924Z,31.82
2018-12-27T11:33:38.149Z,33.67
2018-12-27T11:36:08.563Z,32.45
2018-12-27T11:38:38.822Z,31.48
2018-12-27T11:41:09.133Z,33.10
2018-12-27T11:43:41.117Z,32.17
2018-12-27T11:46:11.360Z,34.70
2018-12-27T11:48:41.562Z,33.70
2018-12-27T11:51:11.990Z,33.42
2018-12-27T11:53:42.334Z,35.68
2018-12-27T11:56:14.202Z,35.78
2018-12-27T11:58:46.533Z,33.35
2018-12-27T12:01:16.763Z,31.23
2018-12-27T12:03:47.670Z,35.78
2018-12-27T12:06:19.685Z,34.50
2018-12-27T12:08:50.159Z,33.70
2018-12-27T12:11:20.409Z,34.50
2018-12-27T12:13:50.859Z,32.55
2018-12-27T12:16:22.882Z,32.75
2018-12-27T12:18:53.068Z,35.03
2018-12-27T12:21:24.338Z,34.90
2018-12-27T12:23:54.879Z,34.00
2018-12-27T12:26:25.140Z,32.23
2018-12-27T12:28:55.423Z,33.48
2018-12-27T12:31:25.768Z,34.38
2018-12-27T12:33:56.002Z,34.85
2018-12-27T12:36:26.364Z,36.42
2018-12-27T12:38:56.589Z,37.53
2018-12-27T12:41:26.807Z,36.05
2018-12-27T12:43:57.204Z,35.85
2018-12-27T12:46:27.402Z,36.45
2018-12-27T12:48:58.035Z,38.65
2018-12-27T12:51:47.450Z,37.48
2018-12-27T12:54:17.674Z,38.45
2018-12-27T12:56:47.947Z,37.00
2018-12-27T12:59:18.283Z,37.20
2018-12-27T13:01:48.682Z,35.43
2018-12-27T13:04:18.902Z,39.85
2018-12-27T13:07:08.256Z,40.65
2018-12-27T13:09:38.469Z,37.73
2018-12-27T13:12:08.860Z,38.83
2018-12-27T13:14:39.192Z,41.88
2018-12-27T13:17:09.480Z,38.35
2018-12-27T13:19:39.762Z,37.42
2018-12-27T13:22:10.062Z,36.00
2018-12-27T13:24:41.992Z,38.85
2018-12-27T13:27:12.242Z,39.78
2018-12-27T13:29:42.954Z,39.30
2018-12-27T13:32:13.285Z,35.70
2018-12-27T13:34:43.609Z,37.08
2018-12-27T13:37:13.855Z,33.98
2018-12-27T13:39:44.390Z,36.58
2018-12-27T13:42:14.643Z,34.92
2018-12-27T13:44:44.852Z,38.45
2018-12-27T13:47:15.279Z,35.55
2018-12-27T13:49:45.589Z,36.42
2018-12-27T13:52:27.705Z,37.00
2018-12-27T13:54:58.032Z,36.80
2018-12-27T13:57:28.697Z,35.65
2018-12-27T14:00:17.999Z,33.73
2018-12-27T14:02:48.751Z,36.15
2018-12-27T14:05:19.005Z,36.55
2018-12-27T14:07:49.272Z,36.35
2018-12-27T14:10:19.620Z,34.70
2018-12-27T14:12:49.917Z,35.23
2018-12-27T14:15:21.780Z,36.65
2018-12-27T14:17:52.388Z,38.80
2018-12-27T14:20:22.596Z,35.95
2018-12-27T14:23:12.051Z,37.10
2018-12-27T14:25:42.296Z,34.88
2018-12-27T14:28:12.827Z,36.23
2018-12-27T14:30:43.069Z,33.15
2018-12-27T14:33:13.394Z,34.63
2018-12-27T14:35:43.655Z,33.08
2018-12-27T14:38:15.504Z,33.18
2018-12-27T14:40:47.453Z,34.95
2018-12-27T14:43:17.663Z,33.42
2018-12-27T14:45:47.907Z,36.42
2018-12-27T14:48:18.208Z,30.08
2018-12-27T14:50:50.235Z,31.33
2018-12-27T14:53:22.526Z,30.77
2018-12-27T14:55:52.890Z,30.85
2018-12-27T14:58:23.116Z,32.88
2018-12-27T15:00:53.716Z,30.62
2018-12-27T15:03:24.131Z,28.65
2018-12-27T15:05:54.434Z,30.57
2018-12-27T15:08:24.836Z,30.95
2018-12-27T15:10:55.174Z,32.05
2018-12-27T15:13:25.607Z,30.25
2018-12-27T15:15:56.248Z,30.37
2018-12-27T15:18:26.517Z,31.35
2018-12-27T15:21:09.042Z,31.68
2018-12-27T15:23:39.320Z,31.37
2018-12-27T15:26:09.524Z,31.05
2018-12-27T15:28:40.010Z,29.67
2018-12-27T15:31:10.195Z,29.82
2018-12-27T15:33:40.527Z,27.80
2018-12-27T15:36:10.953Z,27.98
2018-12-27T15:38:41.170Z,28.90
2018-12-27T15:41:13.031Z,30.10
2018-12-27T15:43:43.927Z,30.80
2018-12-27T15:46:14.200Z,30.88
2018-12-27T15:48:44.674Z,31.37
2018-12-27T15:51:14.957Z,34.05
2018-12-27T15:53:45.174Z,32.95
2018-12-27T15:56:15.705Z,33.13
2018-12-27T15:58:46.046Z,33.05
2018-12-27T16:01:16.261Z,32.00
2018-12-27T16:03:46.602Z,34.03
2018-12-27T16:06:17.301Z,32.15
2018-12-27T16:08:47.630Z,35.00
2018-12-27T16:11:18.149Z,32.55
2018-12-27T16:16:30.491Z,36.30
2018-12-27T16:19:00.737Z,35.83
2018-12-27T16:21:31.030Z,37.90
2018-12-27T16:24:02.968Z,36.17
2018-12-27T16:26:33.521Z,36.75
2018-12-27T16:29:22.829Z,36.23
2018-12-27T16:31:53.102Z,37.08
2018-12-27T16:34:23.298Z,35.38
2018-12-27T16:36:53.613Z,35.30
2018-12-27T16:39:24.062Z,37.10
2018-12-27T16:41:54.395Z,35.63
2018-12-27T16:44:24.831Z,34.00
2018-12-27T16:46:55.201Z,34.55
2018-12-27T16:49:25.489Z,34.85
2018-12-27T16:51:56.130Z,31.97
2018-12-27T16:54:45.551Z,33.35
2018-12-27T16:57:19.681Z,32.20
2018-12-27T16:59:53.212Z,32.78
2018-12-27T17:02:23.656Z,32.85
2018-12-27T17:04:54.062Z,32.20
2018-12-27T17:07:24.320Z,30.80
2018-12-27T17:09:56.300Z,30.70
2018-12-27T17:12:26.677Z,30.90
2018-12-27T17:14:57.109Z,32.00
2018-12-27T17:17:27.546Z,29.15
2018-12-27T17:19:57.856Z,30.52
2018-12-27T17:22:28.676Z,31.40
2018-12-27T17:24:59.560Z,30.90
2018-12-27T17:27:48.876Z,35.23
2018-12-27T17:30:19.130Z,32.58
2018-12-27T17:32:49.430Z,33.65
2018-12-27T17:35:19.716Z,35.70
2018-12-27T17:37:50.073Z,31.00
2018-12-27T17:40:20.342Z,37.30
2018-12-27T17:45:33.173Z,26.20
2018-12-27T17:48:18.701Z,29.70
2018-12-27T17:50:41.564Z,31.60
2018-12-27T17:53:12.678Z,25.80
2018-12-27T17:55:43.134Z,28.30
2018-12-27T17:58:13.892Z,28.00
2018-12-27T18:00:44.256Z,27.93
2018-12-27T18:03:14.640Z,25.88
2018-12-27T18:06:04.339Z,25.25
2018-12-27T18:08:34.627Z,27.17
2018-12-27T18:11:04.889Z,26.80
2018-12-27T18:13:35.235Z,22.62
2018-12-27T18:18:57.285Z,24.30
2018-12-27T18:21:29.632Z,23.50
2018-12-27T18:24:00.416Z,25.48
2018-12-27T18:26:30.779Z,24.23
2018-12-27T18:29:01.573Z,25.95
2018-12-27T18:31:32.116Z,26.42
2018-12-27T18:36:50.398Z,22.00
2018-12-27T18:39:33.168Z,23.02
2018-12-27T18:42:03.457Z,21.12
2018-12-27T18:44:33.719Z,22.40
2018-12-27T18:47:04.141Z,22.35
2018-12-27T18:49:34.362Z,22.62
2018-12-27T18:52:04.586Z,23.57
2018-12-27T18:54:34.875Z,22.17
2018-12-27T18:57:05.539Z,20.20
2018-12-27T18:59:35.850Z,18.07
2018-12-27T19:02:06.469Z,21.07
2018-12-27T19:04:36.834Z,20.60
2018-12-27T19:07:08.817Z,18.23
2018-12-27T19:09:39.060Z,20.72
2018-12-27T19:12:47.482Z,18.12
2018-12-27T19:15:21.280Z,18.62
2018-12-27T19:18:13.202Z,18.40
2018-12-27T19:20:45.708Z,18.00
2018-12-27T19:23:35.125Z,19.32
2018-12-27T19:26:05.645Z,21.60
2018-12-27T19:28:56.459Z,18.92
2018-12-27T19:31:26.760Z,21.25
2018-12-27T19:33:57.044Z,18.95
2018-12-27T19:36:27.299Z,18.23
2018-12-27T19:38:57.532Z,18.02
2018-12-27T19:41:27.871Z,17.10
2018-12-27T19:43:58.479Z,14.87
2018-12-27T19:46:28.814Z,16.97
2018-12-27T19:48:59.045Z,16.07
2018-12-27T19:51:48.625Z,16.40
2018-12-27T19:54:18.891Z,16.73
2018-12-27T19:56:49.147Z,14.87
2018-12-27T19:59:19.595Z,14.00
2018-12-27T20:01:49.800Z,14.18
2018-12-27T20:04:27.842Z,14.43
2018-12-27T20:06:59.767Z,13.83
2018-12-27T20:09:45.300Z,12.68
2018-12-27T20:12:15.661Z,14.35
2018-12-27T20:15:05.014Z,14.28
2018-12-27T20:17:35.288Z,15.03
2018-12-27T20:20:06.380Z,14.80
2018-12-27T20:22:36.628Z,14.80
2018-12-27T20:25:07.416Z,15.25
2018-12-27T20:27:37.733Z,15.32
2018-12-27T20:30:08.679Z,14.10
2018-12-27T20:32:38.918Z,13.72
2018-12-27T20:35:22.817Z,14.10
2018-12-27T20:37:53.039Z,13.18
2018-12-27T20:40:23.259Z,12.45
2018-12-27T20:42:53.929Z,14.25
2018-12-27T20:45:24.189Z,13.58
2018-12-27T20:48:00.217Z,13.20
2018-12-27T20:50:30.829Z,12.68
2018-12-27T20:53:01.021Z,12.00
2018-12-27T20:55:31.520Z,12.28
2018-12-27T20:58:01.782Z,10.28
2018-12-27T21:00:32.573Z,11.55
2018-12-27T21:03:03.033Z,10.32
2018-12-27T21:05:33.450Z,9.80
2018-12-27T21:08:22.809Z,12.78
2018-12-27T21:10:53.229Z,11.08
2018-12-27T21:13:23.646Z,9.90
2018-12-27T21:15:53.956Z,10.72
2018-12-27T21:18:24.210Z,10.03
2018-12-27T21:20:54.436Z,7.87
2018-12-27T21:23:24.672Z,9.28
2018-12-27T21:25:54.983Z,8.63
2018-12-27T21:28:27.009Z,8.18
2018-12-27T21:30:57.225Z,7.15
2018-12-27T21:33:27.589Z,8.88
2018-12-27T21:35:57.918Z,9.53
2018-12-27T21:38:28.174Z,12.37
2018-12-27T21:40:58.575Z,13.53
2018-12-27T21:43:28.813Z,11.75
2018-12-27T21:45:59.266Z,11.08
2018-12-27T21:48:32.702Z,10.53
2018-12-27T21:51:03.029Z,9.43
2018-12-27T21:53:52.211Z,8.88
2018-12-27T21:56:22.461Z,7.75
2018-12-27T21:58:52.683Z,9.70
2018-12-27T22:01:22.918Z,7.33
2018-12-27T22:03:53.363Z,9.63
2018-12-27T22:06:23.645Z,7.87
2018-12-27T22:08:53.965Z,6.42
2018-12-27T22:11:24.282Z,7.65
2018-12-27T22:13:54.524Z,7.65
2018-12-27T22:16:24.761Z,7.22
2018-12-27T22:18:55.036Z,7.55
2018-12-27T22:21:25.300Z,8.08
2018-12-27T22:23:55.549Z,9.48
2018-12-27T22:26:25.874Z,7.40
2018-12-27T22:28:56.720Z,7.58
2018-12-27T22:31:26.915Z,6.67
2018-12-27T22:33:57.210Z,7.40
2018-12-27T22:36:27.519Z,7.03
2018-12-27T22:39:18.500Z,7.20
2018-12-27T22:41:48.735Z,6.85
2018-12-27T22:44:19.081Z,6.30
2018-12-27T22:46:49.702Z,6.95
2018-12-27T22:49:19.954Z,6.65
2018-12-27T22:51:51.789Z,6.80
2018-12-27T22:54:22.165Z,5.92
2018-12-27T22:56:52.438Z,6.60
2018-12-27T22:59:24.651Z,5.60
2018-12-27T23:01:54.899Z,6.65
2018-12-27T23:04:25.458Z,6.35
2018-12-27T23:06:55.682Z,6.20
2018-12-27T23:09:26.255Z,6.55
2018-12-27T23:11:58.305Z,6.10
2018-12-27T23:14:28.564Z,5.28
2018-12-27T23:17:00.458Z,6.05
2018-12-27T23:19:30.829Z,4.55
2018-12-27T23:22:01.175Z,6.53
2018-12-27T23:24:31.497Z,6.40
2018-12-27T23:27:02.141Z,6.25
2018-12-27T23:29:34.173Z,5.97
2018-12-27T23:32:04.407Z,5.75
2018-12-27T23:34:34.757Z,5.70
2018-12-27T23:37:05.176Z,5.03
2018-12-27T23:39:35.543Z,5.05
2018-12-27T23:42:05.769Z,5.40
2018-12-27T23:44:36.112Z,5.10
2018-12-27T23:47:18.471Z,4.00
2018-12-27T23:49:49.076Z,4.90
2018-12-27T23:52:19.605Z,4.35
2018-12-27T23:54:51.459Z,5.40
2018-12-27T23:57:22.135Z,5.10
2018-12-27T23:59:52.484Z,4.80
